Time;durP1;ratioP1;P1;durP2;ratioP2;P2;SDS_P1;SDS_P2;PMS_P1;PMS_P2;Temp;Humidity;BMP_temperature;BMP_pressure;BME280_temperature;BME280_humidity;BME280_pressure;Samples;Min_cycle;Max_cycle;Signal;HPM_P1;HPM_P2
2021/12/29 12:05:58;;;;;;;11.70;6.38;;;10.80;88.00;;;;;;4941792;29;20229;-90
2021/12/29 12:08:25;;;;;;;11.45;5.47;;;10.90;87.80;;;;;;4940965;29;20263;-90
2021/12/29 12:10:52;;;;;;;11.63;6.45;;;10.90;87.80;;;;;;4947197;29;20240;-90
2021/12/29 12:13:30;;;;;;;19.15;5.43;;;10.80;87.80;;;;;;4955990;28;20185;-90
2021/12/29 12:16:11;;;;;;;13.05;6.07;;;10.80;87.70;;;;;;4949776;29;20212;-89
2021/12/29 12:18:50;;;;;;;13.90;5.07;;;11.00;87.80;;;;;;4947060;29;20173;-89
2021/12/29 12:21:34;;;;;;;9.57;4.97;;;11.00;87.30;;;;;;4941158;29;20211;-90
2021/12/29 12:24:23;;;;;;;16.27;6.05;;;10.90;87.50;;;;;;4939688;29;20256;-90
2021/12/29 12:26:59;;;;;;;11.18;4.60;;;10.90;87.90;;;;;;4939672;29;20217;-89
2021/12/29 12:29:28;;;;;;;12.18;4.78;;;10.90;88.10;;;;;;4922392;29;20289;-90
2021/12/29 12:32:02;;;;;;;14.70;5.30;;;10.80;88.10;;;;;;4937978;29;20676;-90
2021/12/29 12:34:28;;;;;;;6.93;4.30;;;10.80;88.30;;;;;;4937382;29;20204;-90
2021/12/29 12:36:54;;;;;;;10.57;5.10;;;10.90;88.80;;;;;;4937443;29;20185;-90
2021/12/29 12:39:21;;;;;;;11.00;4.53;;;10.90;88.80;;;;;;4938643;29;20474;-89
2021/12/29 12:41:58;;;;;;;20.05;6.53;;;10.90;89.80;;;;;;4939314;29;20185;-89
2021/12/29 12:44:34;;;;;;;13.07;4.00;;;10.90;88.90;;;;;;4938775;29;20205;-90
2021/12/29 12:47:33;;;;;;;12.55;3.95;;;10.80;89.10;;;;;;4939921;29;20177;-90
2021/12/29 12:50:00;;;;;;;11.60;5.18;;;10.90;89.20;;;;;;4939690;29;20527;-89
2021/12/29 12:52:37;;;;;;;9.95;4.25;;;10.90;89.00;;;;;;4938186;29;20205;-89
2021/12/29 12:55:08;;;;;;;13.70;4.88;;;10.90;89.10;;;;;;4940368;29;20673;-90
2021/12/29 12:57:44;;;;;;;12.02;4.10;;;11.00;89.40;;;;;;4941108;29;20181;-90
2021/12/29 13:00:15;;;;;;;12.20;3.90;;;11.00;89.80;;;;;;4938217;29;20211;-90
2021/12/29 13:02:45;;;;;;;10.50;4.00;;;10.90;90.40;;;;;;4939305;29;20189;-90
2021/12/29 13:05:22;;;;;;;9.63;3.42;;;10.90;91.10;;;;;;4939226;29;20224;-88
2021/12/29 13:08:02;;;;;;;10.00;4.32;;;10.80;91.80;;;;;;4940642;29;20176;-90
2021/12/29 13:10:30;;;;;;;8.23;3.70;;;10.70;92.50;;;;;;4938706;29;20550;-90
2021/12/29 13:13:00;;;;;;;10.63;5.35;;;10.60;92.90;;;;;;4938396;29;20504;-90
2021/12/29 13:15:30;;;;;;;8.40;4.78;;;10.60;93.70;;;;;;4940229;29;20309;-90
2021/12/29 13:17:56;;;;;;;9.32;5.20;;;10.50;94.30;;;;;;4940909;29;20201;-91
2021/12/29 13:20:22;;;;;;;11.15;5.53;;;10.60;94.70;;;;;;4940776;29;20653;-90
2021/12/29 13:22:49;;;;;;;9.93;5.67;;;10.70;94.80;;;;;;4950082;29;20212;-91
2021/12/29 13:25:24;;;;;;;7.53;5.45;;;10.50;95.00;;;;;;4945450;29;20471;-91
2021/12/29 13:28:03;;;;;;;8.27;5.65;;;10.50;95.30;;;;;;4947025;29;20173;-91
2021/12/29 13:30:43;;;;;;;10.75;6.57;;;10.60;95.60;;;;;;4943073;29;20645;-91
2021/12/29 13:33:08;;;;;;;9.32;6.40;;;10.60;95.80;;;;;;4944277;29;20188;-91
2021/12/29 13:35:37;;;;;;;12.00;7.10;;;10.50;96.00;;;;;;4949826;28;20162;-91
2021/12/29 13:38:06;;;;;;;8.82;6.03;;;10.50;96.10;;;;;;4952871;29;20972;-91
2021/12/29 13:40:41;;;;;;;6.53;5.82;;;10.70;96.20;;;;;;4942260;29;20228;-91
2021/12/29 13:43:12;;;;;;;10.00;6.40;;;10.70;96.10;;;;;;4938107;29;20184;-91
2021/12/29 13:45:38;;;;;;;8.68;6.03;;;10.80;96.00;;;;;;4941216;29;20276;-91
2021/12/29 13:48:04;;;;;;;10.33;5.67;;;10.70;95.80;;;;;;4941789;29;20734;-91
2021/12/29 13:50:30;;;;;;;7.50;5.47;;;10.60;95.90;;;;;;4948188;29;20952;-92
2021/12/29 13:53:14;;;;;;;8.52;5.60;;;10.60;96.10;;;;;;4956106;28;20185;-90
2021/12/29 13:55:42;;;;;;;6.13;4.32;;;10.50;96.40;;;;;;4948723;29;20809;-92
2021/12/29 13:58:14;;;;;;;7.30;5.20;;;10.60;96.60;;;;;;4944699;29;20315;-92
2021/12/29 14:00:39;;;;;;;8.50;4.85;;;10.60;96.70;;;;;;4942744;29;20215;-92
2021/12/29 14:03:05;;;;;;;7.90;4.73;;;10.60;96.80;;;;;;4940987;29;20181;-91
2021/12/29 14:05:46;;;;;;;4.72;4.22;;;10.70;97.00;;;;;;4949970;29;20216;-91
2021/12/29 14:08:14;;;;;;;7.75;5.68;;;10.70;96.70;;;;;;4958563;28;20753;-91
2021/12/29 14:10:41;;;;;;;7.90;5.05;;;10.60;96.60;;;;;;4945356;29;20193;-91
2021/12/29 14:13:29;;;;;;;9.27;5.03;;;10.70;96.70;;;;;;4943855;29;20533;-91
2021/12/29 14:16:05;;;;;;;7.82;5.78;;;10.90;96.70;;;;;;4944440;29;20174;-91
2021/12/29 14:18:33;;;;;;;13.20;4.93;;;10.80;96.40;;;;;;4945717;29;20173;-91
2021/12/29 14:21:14;;;;;;;7.90;4.53;;;10.80;96.40;;;;;;4944794;29;20264;-92
2021/12/29 14:23:43;;;;;;;13.07;4.57;;;11.10;96.50;;;;;;4944319;29;20202;-92
2021/12/29 14:26:11;;;;;;;9.05;5.60;;;10.90;96.10;;;;;;4950414;29;20213;-91
2021/12/29 14:28:37;;;;;;;13.75;7.95;;;11.00;96.10;;;;;;4952882;29;20181;-91
2021/12/29 14:31:13;;;;;;;14.55;8.80;;;11.30;96.20;;;;;;4954107;29;20177;-92
2021/12/29 14:33:42;;;;;;;7.20;6.22;;;11.40;95.80;;;;;;4945836;29;20203;-91
2021/12/29 14:36:11;;;;;;;6.03;4.68;;;11.30;95.50;;;;;;4946255;29;20181;-92
2021/12/29 14:38:38;;;;;;;5.28;4.78;;;11.20;95.20;;;;;;4948417;29;20217;-91
2021/12/29 14:41:15;;;;;;;6.60;6.00;;;11.50;95.30;;;;;;4947284;29;20612;-91
2021/12/29 14:43:41;;;;;;;5.38;4.53;;;11.50;95.20;;;;;;4950641;29;20204;-89
2021/12/29 14:46:07;;;;;;;9.90;5.70;;;11.40;94.60;;;;;;4953795;29;20657;-90
2021/12/29 14:48:33;;;;;;;5.32;4.93;;;11.70;94.80;;;;;;4953487;29;20448;-90
2021/12/29 14:50:59;;;;;;;7.82;5.20;;;11.70;94.60;;;;;;4953792;29;20209;-90
2021/12/29 14:53:30;;;;;;;5.20;4.10;;;11.70;94.50;;;;;;4951662;29;20216;-91
2021/12/29 14:56:07;;;;;;;4.40;3.90;;;11.80;94.40;;;;;;4949026;29;20181;-90
2021/12/29 14:58:33;;;;;;;5.72;4.47;;;11.80;94.20;;;;;;4950609;29;20188;-91
2021/12/29 15:01:08;;;;;;;6.45;4.57;;;11.90;94.20;;;;;;4948156;29;20185;-91
2021/12/29 15:03:34;;;;;;;5.07;4.55;;;11.80;94.00;;;;;;4949720;29;20204;-91
2021/12/29 15:06:00;;;;;;;7.47;5.00;;;11.80;93.90;;;;;;4947252;29;20746;-91
2021/12/29 15:08:28;;;;;;;7.70;5.13;;;11.90;94.00;;;;;;4945039;29;20177;-91
2021/12/29 15:10:58;;;;;;;7.75;5.50;;;12.00;94.00;;;;;;4942896;29;20185;-92
2021/12/29 15:13:27;;;;;;;5.65;5.15;;;12.00;93.80;;;;;;4950723;29;20213;-92
2021/12/29 15:15:59;;;;;;;6.85;5.95;;;12.10;93.70;;;;;;4952670;29;20189;-92
2021/12/29 15:18:28;;;;;;;9.65;7.03;;;12.00;93.50;;;;;;4947333;29;20632;-92
2021/12/29 15:21:04;;;;;;;12.75;7.18;;;12.00;93.50;;;;;;4948813;29;20221;-92
2021/12/29 15:23:32;;;;;;;7.22;6.43;;;12.10;93.70;;;;;;4948064;29;20280;-91
2021/12/29 15:25:58;;;;;;;7.03;5.80;;;12.10;93.60;;;;;;4951245;29;20208;-91
2021/12/29 15:28:26;;;;;;;11.07;7.00;;;12.20;93.60;;;;;;4957484;29;20167;-91
2021/12/29 15:30:56;;;;;;;8.93;8.00;;;12.30;93.60;;;;;;4951503;29;21008;-91
2021/12/29 15:33:24;;;;;;;10.60;8.68;;;12.20;93.50;;;;;;4947687;29;20192;-91
2021/12/29 15:35:50;;;;;;;10.52;8.63;;;12.10;93.70;;;;;;4943515;29;20753;-91
2021/12/29 15:38:17;;;;;;;9.93;8.38;;;12.20;94.00;;;;;;4945410;29;20209;-91
2021/12/29 15:40:44;;;;;;;14.18;8.93;;;12.20;93.90;;;;;;4947509;29;20207;-91
2021/12/29 15:43:10;;;;;;;13.30;10.35;;;12.30;93.90;;;;;;4944796;29;20181;-92
2021/12/29 15:45:36;;;;;;;12.33;9.33;;;12.20;93.80;;;;;;4950793;29;20260;-91
2021/12/29 15:48:02;;;;;;;18.90;10.02;;;12.30;94.10;;;;;;4955122;29;20421;-91
2021/12/29 15:50:33;;;;;;;12.05;8.85;;;12.30;94.20;;;;;;4957716;29;20201;-91
2021/12/29 15:53:01;;;;;;;11.57;9.85;;;12.30;94.40;;;;;;4954637;29;20168;-91
2021/12/29 15:55:28;;;;;;;13.77;10.73;;;12.30;94.50;;;;;;4948739;29;20212;-91
2021/12/29 15:57:56;;;;;;;12.95;9.07;;;12.40;94.50;;;;;;4944681;29;20536;-91
2021/12/29 16:00:25;;;;;;;13.88;10.75;;;12.40;94.50;;;;;;4951859;29;20212;-90
2021/12/29 16:02:51;;;;;;;15.27;10.10;;;12.40;94.50;;;;;;4953167;29;20177;-91
2021/12/29 16:05:19;;;;;;;18.77;10.85;;;12.40;94.70;;;;;;4944052;29;20221;-91
2021/12/29 16:07:45;;;;;;;15.55;11.13;;;12.40;94.80;;;;;;4939573;29;20189;-91
2021/12/29 16:10:12;;;;;;;12.75;10.27;;;12.50;94.90;;;;;;4938038;29;20185;-92
2021/12/29 16:12:39;;;;;;;13.27;10.50;;;12.60;94.90;;;;;;4939504;29;20182;-91
2021/12/29 16:15:07;;;;;;;14.98;10.52;;;12.60;95.60;;;;;;4942021;29;20227;-91
2021/12/29 16:17:33;;;;;;;14.73;10.65;;;12.70;95.60;;;;;;4939745;29;20192;-91
2021/12/29 16:20:01;;;;;;;14.85;10.35;;;12.80;94.90;;;;;;4941734;29;20221;-91
2021/12/29 16:22:27;;;;;;;11.32;9.60;;;12.70;94.80;;;;;;4945191;29;20181;-91
2021/12/29 16:24:53;;;;;;;14.10;10.07;;;12.80;94.90;;;;;;4943147;29;20216;-91
2021/12/29 16:27:22;;;;;;;14.40;10.65;;;12.70;95.00;;;;;;4940114;29;20189;-91
2021/12/29 16:29:53;;;;;;;12.65;9.80;;;12.80;95.10;;;;;;4937990;29;20188;-91
2021/12/29 16:32:19;;;;;;;15.35;10.95;;;12.70;95.30;;;;;;4936976;29;20260;-91
2021/12/29 16:34:47;;;;;;;15.90;12.02;;;12.70;95.50;;;;;;4943252;29;20202;-91
2021/12/29 16:37:17;;;;;;;14.65;10.05;;;12.80;95.70;;;;;;4937626;29;20189;-91
2021/12/29 16:39:44;;;;;;;16.55;9.65;;;12.80;95.80;;;;;;4938208;29;20184;-91
2021/12/29 16:42:10;;;;;;;15.88;10.82;;;12.80;95.90;;;;;;4939969;29;20181;-91
2021/12/29 16:44:36;;;;;;;17.77;11.02;;;12.90;96.20;;;;;;4938211;29;20201;-91
2021/12/29 16:47:02;;;;;;;20.58;11.93;;;12.90;96.20;;;;;;4937378;29;20209;-92
2021/12/29 16:49:28;;;;;;;17.23;11.88;;;13.00;96.20;;;;;;4937388;29;20196;-91
2021/12/29 16:51:54;;;;;;;16.83;11.43;;;13.00;96.20;;;;;;4938036;29;20177;-92
2021/12/29 16:54:20;;;;;;;14.57;10.40;;;13.00;96.10;;;;;;4937777;29;20432;-91
2021/12/29 16:56:46;;;;;;;16.85;11.45;;;13.00;96.20;;;;;;4936567;29;20428;-90
2021/12/29 16:59:12;;;;;;;17.23;10.47;;;13.10;96.40;;;;;;4938707;29;20272;-89
2021/12/29 17:01:40;;;;;;;15.23;10.90;;;13.10;96.40;;;;;;4937051;29;20225;-90
2021/12/29 17:04:06;;;;;;;14.82;8.80;;;13.10;96.40;;;;;;4939024;29;20213;-89
2021/12/29 17:06:33;;;;;;;22.30;11.52;;;13.20;96.30;;;;;;4950500;29;20272;-90
2021/12/29 17:08:59;;;;;;;18.75;9.40;;;13.10;96.30;;;;;;4949619;29;20208;-90
2021/12/29 17:11:26;;;;;;;19.20;9.40;;;13.20;96.40;;;;;;4937803;29;20264;-90
2021/12/29 17:13:52;;;;;;;15.60;8.50;;;13.20;96.40;;;;;;4936521;29;20437;-90
2021/12/29 17:16:18;;;;;;;17.57;9.40;;;13.20;96.40;;;;;;4937548;29;20262;-90
2021/12/29 17:18:44;;;;;;;16.00;7.87;;;13.30;96.70;;;;;;4940194;29;20524;-90
2021/12/29 17:21:10;;;;;;;14.77;7.90;;;13.30;96.20;;;;;;4945003;29;20457;-90
2021/12/29 17:23:35;;;;;;;14.70;7.70;;;13.40;96.20;;;;;;4941418;29;20439;-90
2021/12/29 17:26:02;;;;;;;27.33;7.83;;;13.40;96.10;;;;;;4943148;29;20468;-89
2021/12/29 17:28:31;;;;;;;19.33;7.60;;;13.40;96.10;;;;;;4945212;29;20181;-90
2021/12/29 17:30:59;;;;;;;16.45;8.95;;;13.40;96.00;;;;;;4941226;29;20276;-90
2021/12/29 17:33:27;;;;;;;16.27;7.03;;;13.40;96.10;;;;;;4940701;29;20610;-90
2021/12/29 17:36:11;;;;;;;13.13;8.90;;;13.30;96.00;;;;;;4940734;29;20193;-90
2021/12/29 17:38:37;;;;;;;18.52;8.00;;;13.40;96.00;;;;;;4942413;29;20219;-90
2021/12/29 17:41:03;;;;;;;18.33;8.60;;;13.40;95.90;;;;;;4949412;29;20181;-90
2021/12/29 17:43:29;;;;;;;18.40;9.97;;;13.40;95.90;;;;;;4950788;29;20205;-90
2021/12/29 17:45:55;;;;;;;15.13;8.50;;;13.40;96.00;;;;;;4945404;29;20484;-89
2021/12/29 17:48:21;;;;;;;20.67;7.65;;;13.50;95.90;;;;;;4943295;29;20512;-89
2021/12/29 17:50:47;;;;;;;16.20;7.23;;;13.50;95.90;;;;;;4944080;29;20212;-89
2021/12/29 17:53:18;;;;;;;14.95;8.45;;;13.50;95.70;;;;;;4946871;29;20181;-89
2021/12/29 17:55:45;;;;;;;32.88;9.30;;;13.50;95.50;;;;;;4946585;29;20193;-89
2021/12/29 17:58:11;;;;;;;19.88;8.23;;;13.40;95.40;;;;;;4940545;29;20209;-89
2021/12/29 18:00:36;;;;;;;23.80;8.47;;;13.40;95.30;;;;;;4939680;29;20185;-89
2021/12/29 18:03:03;;;;;;;25.60;8.20;;;13.40;95.30;;;;;;4940752;29;20189;-89
2021/12/29 18:15:42;;;;;;;18.88;8.45;;;13.60;94.60;;;;;;4938415;29;20597;-90
2021/12/29 18:18:08;;;;;;;25.07;10.17;;;13.50;94.50;;;;;;4938490;29;20181;-91
2021/12/29 18:20:38;;;;;;;26.10;9.33;;;13.60;94.50;;;;;;4940824;29;20417;-90
2021/12/29 18:23:09;;;;;;;25.55;11.50;;;13.50;94.40;;;;;;4940100;29;20540;-91
2021/12/29 18:25:37;;;;;;;30.60;11.60;;;13.60;94.50;;;;;;4938141;29;20220;-89
2021/12/29 18:28:03;;;;;;;32.75;12.07;;;13.50;94.40;;;;;;4941586;29;20260;-90
2021/12/29 18:30:47;;;;;;;42.00;14.98;;;13.60;94.20;;;;;;4921951;29;20692;-90
2021/12/29 18:33:13;;;;;;;38.28;13.15;;;13.60;94.10;;;;;;4920339;29;20213;-92
2021/12/29 18:35:39;;;;;;;45.65;13.30;;;13.50;93.90;;;;;;4918970;29;20233;-90
2021/12/29 18:38:08;;;;;;;37.70;15.57;;;13.50;93.90;;;;;;4929443;29;20181;-91
2021/12/29 18:40:35;;;;;;;50.35;15.10;;;13.40;93.80;;;;;;4925930;29;20270;-90
2021/12/29 18:43:08;;;;;;;35.92;15.68;;;13.40;93.80;;;;;;4919388;29;20627;-89
2021/12/29 18:45:35;;;;;;;47.67;16.35;;;13.30;93.90;;;;;;4921030;29;20249;-90
2021/12/29 18:48:01;;;;;;;42.70;15.35;;;13.30;93.80;;;;;;4922220;29;20555;-90
2021/12/29 18:50:28;;;;;;;46.63;16.73;;;13.30;93.80;;;;;;4917774;29;20680;-90
2021/12/29 18:52:55;;;;;;;48.70;14.50;;;13.30;93.80;;;;;;4924220;29;20182;-90
2021/12/29 18:55:23;;;;;;;36.78;15.32;;;13.20;93.70;;;;;;4936767;29;20594;-90
2021/12/29 18:57:49;;;;;;;48.85;15.25;;;13.20;93.70;;;;;;4936890;29;20185;-90
2021/12/29 19:00:16;;;;;;;44.50;14.80;;;13.20;93.80;;;;;;4938825;29;20259;-89
2021/12/29 19:02:42;;;;;;;41.40;13.93;;;13.10;93.90;;;;;;4936631;29;20189;-90
2021/12/29 19:05:16;;;;;;;38.27;12.63;;;13.10;94.00;;;;;;4936261;29;20596;-89
2021/12/29 19:07:46;;;;;;;61.58;14.52;;;13.10;94.10;;;;;;4938250;29;20318;-90
2021/12/29 19:10:12;;;;;;;50.75;13.18;;;13.10;94.00;;;;;;4941377;29;20209;-90
2021/12/29 19:12:38;;;;;;;47.10;12.55;;;13.00;94.00;;;;;;4939347;29;20262;-90
2021/12/29 19:15:05;;;;;;;56.63;12.95;;;13.00;94.00;;;;;;4939137;29;20221;-89
2021/12/29 19:17:36;;;;;;;39.65;11.20;;;13.00;94.10;;;;;;4939745;29;20185;-90
2021/12/29 19:20:05;;;;;;;37.30;11.73;;;13.00;94.10;;;;;;4939603;29;20193;-90
2021/12/29 19:22:31;;;;;;;55.80;11.88;;;12.90;94.10;;;;;;4939882;29;20630;-90
2021/12/29 19:24:57;;;;;;;38.57;10.40;;;12.90;94.20;;;;;;4941862;28;20226;-90
2021/12/29 19:27:32;;;;;;;34.00;10.07;;;13.00;94.20;;;;;;4918282;29;20181;-90
2021/12/29 19:29:58;;;;;;;49.20;10.43;;;12.90;94.10;;;;;;4918187;29;20192;-93
2021/12/29 19:32:24;;;;;;;37.53;10.02;;;12.80;94.10;;;;;;4919201;29;20208;-90
2021/12/29 19:34:50;;;;;;;45.00;10.77;;;12.80;94.20;;;;;;4933452;29;20209;-90
2021/12/29 19:37:16;;;;;;;47.63;10.35;;;12.80;94.30;;;;;;4924132;29;20189;-90
2021/12/29 19:39:43;;;;;;;46.33;13.40;;;12.60;94.40;;;;;;4927062;29;20182;-90
2021/12/29 19:42:13;;;;;;;49.70;12.93;;;12.70;94.70;;;;;;4930943;29;20547;-91
2021/12/29 19:44:46;;;;;;;43.30;10.65;;;12.70;94.60;;;;;;4920641;29;20261;-90
2021/12/29 19:47:18;;;;;;;50.70;10.43;;;12.70;94.50;;;;;;4923690;29;20181;-91
2021/12/29 19:49:45;;;;;;;38.92;9.80;;;12.70;94.50;;;;;;4926112;29;20178;-91
2021/12/29 19:52:15;;;;;;;36.80;9.57;;;12.70;94.40;;;;;;4920164;29;20180;-90
2021/12/29 19:54:46;;;;;;;51.83;10.70;;;12.70;94.40;;;;;;4926964;29;20204;-91
2021/12/29 19:57:14;;;;;;;48.15;11.82;;;12.60;94.30;;;;;;4918357;29;20170;-91
2021/12/29 19:59:40;;;;;;;43.42;10.57;;;12.50;94.60;;;;;;4934103;29;20276;-90
2021/12/29 20:02:06;;;;;;;46.47;11.00;;;12.60;94.70;;;;;;4936307;29;20248;-91
2021/12/29 20:04:32;;;;;;;39.37;10.50;;;12.50;94.80;;;;;;4935951;29;20452;-91
2021/12/29 20:06:59;;;;;;;47.80;10.70;;;12.50;94.80;;;;;;4920407;29;20458;-91
2021/12/29 20:09:25;;;;;;;34.63;9.98;;;12.60;94.80;;;;;;4933457;29;21101;-91
2021/12/29 20:11:51;;;;;;;43.47;10.50;;;12.60;94.70;;;;;;4930057;29;20193;-91
2021/12/29 20:14:17;;;;;;;53.53;12.20;;;12.50;94.70;;;;;;4928151;29;20970;-91
2021/12/29 20:16:58;;;;;;;59.45;12.70;;;12.60;94.70;;;;;;4917271;29;20215;-91
2021/12/29 20:19:24;;;;;;;42.53;12.48;;;12.60;94.70;;;;;;4917587;29;20178;-91
2021/12/29 20:21:51;;;;;;;42.73;13.17;;;12.70;94.70;;;;;;4917758;29;20196;-91
2021/12/29 20:24:17;;;;;;;45.90;12.60;;;12.70;94.50;;;;;;4917126;29;20209;-91
2021/12/29 20:26:43;;;;;;;50.65;12.65;;;12.60;94.30;;;;;;4917264;29;20209;-91
2021/12/29 20:29:09;;;;;;;53.03;12.93;;;12.70;94.30;;;;;;4918069;29;20177;-92
2021/12/29 20:31:36;;;;;;;40.80;11.33;;;12.60;94.10;;;;;;4917096;29;20642;-91
2021/12/29 20:34:06;;;;;;;48.65;12.20;;;12.60;94.10;;;;;;4916469;29;20457;-91
2021/12/29 20:36:37;;;;;;;61.33;14.32;;;12.60;94.20;;;;;;4917052;29;20205;-91
2021/12/29 20:39:05;;;;;;;49.03;12.00;;;12.60;94.10;;;;;;4916863;29;20261;-91
2021/12/29 20:41:32;;;;;;;44.65;11.88;;;12.60;94.20;;;;;;4924167;29;20638;-91
2021/12/29 20:43:58;;;;;;;48.83;12.43;;;12.60;94.10;;;;;;4935215;29;20211;-91
2021/12/29 20:46:23;;;;;;;56.47;13.03;;;12.60;94.10;;;;;;4935250;29;20235;-91
2021/12/29 20:48:49;;;;;;;43.97;12.17;;;12.70;94.20;;;;;;4936287;29;20642;-91
2021/12/29 20:51:22;;;;;;;48.93;11.63;;;12.60;94.00;;;;;;4936102;29;20425;-91
2021/12/29 20:53:48;;;;;;;39.72;9.88;;;12.80;94.10;;;;;;4921908;29;20704;-91
2021/12/29 20:56:14;;;;;;;36.73;11.50;;;12.80;94.00;;;;;;4916730;29;20277;-91
2021/12/29 20:58:40;;;;;;;43.53;10.73;;;12.70;93.80;;;;;;4917371;29;20418;-90
2021/12/29 21:01:08;;;;;;;60.45;12.80;;;12.70;93.70;;;;;;4917143;29;20952;-90
2021/12/29 21:03:34;;;;;;;51.10;10.70;;;12.70;93.70;;;;;;4916706;29;20193;-90
2021/12/29 21:06:07;;;;;;;39.10;11.83;;;12.80;93.60;;;;;;4916505;29;20227;-89
2021/12/29 21:08:33;;;;;;;36.53;9.23;;;12.80;93.50;;;;;;4916640;29;20170;-90
2021/12/29 21:10:59;;;;;;;55.13;11.30;;;12.70;93.30;;;;;;4919162;29;20190;-91
2021/12/29 21:13:25;;;;;;;62.87;13.00;;;12.70;93.20;;;;;;4917561;29;20186;-90
2021/12/29 21:15:51;;;;;;;37.43;10.57;;;12.70;93.20;;;;;;4917626;29;20480;-91
2021/12/29 21:18:17;;;;;;;45.05;10.43;;;12.80;93.10;;;;;;4917775;29;20256;-90
2021/12/29 21:20:43;;;;;;;41.70;10.60;;;12.80;92.90;;;;;;4917448;29;20678;-90
2021/12/29 21:23:11;;;;;;;37.13;11.73;;;12.80;92.80;;;;;;4918586;29;20918;-91
2021/12/29 21:25:39;;;;;;;34.22;10.13;;;12.80;92.60;;;;;;4917018;29;20657;-91
2021/12/29 21:28:05;;;;;;;42.60;9.02;;;12.80;92.40;;;;;;4916551;29;20646;-91
2021/12/29 21:30:34;;;;;;;39.28;12.73;;;12.70;92.30;;;;;;4916392;29;20181;-91
2021/12/29 21:33:00;;;;;;;45.60;9.93;;;12.70;92.40;;;;;;4915675;29;20182;-91
2021/12/29 21:35:28;;;;;;;49.03;9.82;;;12.80;92.50;;;;;;4920002;29;20209;-90
2021/12/29 21:37:55;;;;;;;49.45;13.00;;;12.80;92.40;;;;;;4927227;29;20173;-90
2021/12/29 21:40:25;;;;;;;48.05;11.23;;;12.80;92.30;;;;;;4935364;29;20181;-90
2021/12/29 21:42:53;;;;;;;47.20;10.07;;;12.70;92.40;;;;;;4934978;29;20196;-90
2021/12/29 21:45:21;;;;;;;51.97;11.10;;;12.80;92.40;;;;;;4935019;29;20205;-90
2021/12/29 21:47:49;;;;;;;48.20;9.57;;;12.80;92.20;;;;;;4935191;29;20574;-90
2021/12/29 21:50:17;;;;;;;50.05;10.05;;;12.90;92.20;;;;;;4936090;29;20189;-90
2021/12/29 21:52:43;;;;;;;36.63;8.95;;;12.90;92.10;;;;;;4918522;29;20586;-90
2021/12/29 21:55:10;;;;;;;46.40;8.77;;;12.80;91.80;;;;;;4937990;29;20258;-90
2021/12/29 21:57:36;;;;;;;43.80;9.68;;;12.80;91.80;;;;;;4937608;29;20232;-90
2021/12/29 22:00:06;;;;;;;33.17;9.50;;;12.80;91.80;;;;;;4922319;29;20189;-90
2021/12/29 22:02:31;;;;;;;31.42;8.45;;;12.90;91.90;;;;;;4933887;29;20206;-90
2021/12/29 22:04:57;;;;;;;28.47;8.97;;;12.90;91.80;;;;;;4934152;29;20213;-89
2021/12/29 22:07:23;;;;;;;37.40;10.77;;;12.80;91.70;;;;;;4934230;29;20181;-90
2021/12/29 22:09:48;;;;;;;47.27;12.00;;;12.90;91.80;;;;;;4947549;28;20228;-90
2021/12/29 22:12:14;;;;;;;38.50;10.80;;;12.80;91.70;;;;;;4940753;29;20185;-91
2021/12/29 22:14:41;;;;;;;44.73;10.90;;;12.70;91.60;;;;;;4937717;29;20221;-91
2021/12/29 22:17:07;;;;;;;38.70;11.10;;;12.80;91.60;;;;;;4946967;29;20176;-90
2021/12/29 22:19:34;;;;;;;41.83;11.60;;;12.70;91.50;;;;;;4960742;28;20256;-89
2021/12/29 22:22:00;;;;;;;38.28;12.07;;;12.70;91.60;;;;;;4959875;29;20204;-89
2021/12/29 22:24:26;;;;;;;38.20;8.73;;;12.70;91.60;;;;;;4946850;29;20213;-90
2021/12/29 22:26:52;;;;;;;41.23;10.20;;;12.70;91.60;;;;;;4939278;29;20682;-92
2021/12/29 22:29:20;;;;;;;31.33;8.27;;;12.80;91.60;;;;;;4937924;29;20421;-92
2021/12/29 22:31:46;;;;;;;52.83;10.60;;;12.70;91.50;;;;;;4938010;29;20481;-92
2021/12/29 22:34:14;;;;;;;48.45;9.77;;;12.60;91.50;;;;;;4939029;29;20944;-92
2021/12/29 22:36:40;;;;;;;38.15;9.75;;;12.60;91.70;;;;;;4937833;29;20181;-92
2021/12/29 22:39:06;;;;;;;36.37;9.77;;;12.70;91.90;;;;;;4937402;29;20192;-92
2021/12/29 22:41:32;;;;;;;35.20;11.38;;;12.70;91.70;;;;;;4937900;29;20192;-92
2021/12/29 22:43:58;;;;;;;44.30;9.07;;;12.70;91.80;;;;;;4937458;29;20280;-91
2021/12/29 22:46:24;;;;;;;57.13;9.95;;;12.60;91.90;;;;;;4939313;29;20201;-92
2021/12/29 22:48:50;;;;;;;39.17;9.25;;;12.80;92.20;;;;;;4937835;29;20191;-92
2021/12/29 22:51:17;;;;;;;43.83;7.83;;;12.90;92.20;;;;;;4937711;29;20264;-92
2021/12/29 22:53:43;;;;;;;27.75;8.00;;;12.80;92.20;;;;;;4936810;29;20441;-92
2021/12/29 22:56:10;;;;;;;48.17;8.65;;;12.90;92.20;;;;;;4939163;29;20555;-92
2021/12/29 22:58:37;;;;;;;41.88;8.27;;;13.00;92.10;;;;;;4937738;29;20196;-92
2021/12/29 23:01:08;;;;;;;37.42;8.93;;;12.90;92.10;;;;;;4937470;29;20309;-92
2021/12/29 23:03:34;;;;;;;42.75;8.32;;;13.00;92.10;;;;;;4937270;29;20264;-92
2021/12/29 23:06:00;;;;;;;42.17;8.27;;;13.00;91.90;;;;;;4937221;29;20296;-92
2021/12/29 23:08:29;;;;;;;46.08;8.43;;;13.00;91.90;;;;;;4937361;29;20420;-92
2021/12/29 23:10:57;;;;;;;26.05;10.15;;;13.10;91.90;;;;;;4937587;29;20652;-91
2021/12/29 23:13:26;;;;;;;34.45;8.27;;;13.10;91.90;;;;;;4936928;29;20173;-91
2021/12/29 23:15:52;;;;;;;18.55;6.65;;;13.10;92.00;;;;;;4937662;29;20563;-91
2021/12/29 23:18:18;;;;;;;32.50;8.70;;;13.00;91.90;;;;;;4937692;29;20285;-91
2021/12/29 23:20:44;;;;;;;26.13;7.20;;;13.10;92.10;;;;;;4937695;29;20434;-92
2021/12/29 23:23:13;;;;;;;42.30;9.65;;;13.20;92.00;;;;;;4937776;29;20209;-91
2021/12/29 23:25:52;;;;;;;34.33;7.63;;;13.30;92.00;;;;;;4938263;29;20240;-91
2021/12/29 23:28:19;;;;;;;22.52;5.47;;;13.30;91.90;;;;;;4938008;29;20153;-91
2021/12/29 23:30:49;;;;;;;23.85;7.32;;;13.30;91.80;;;;;;4937222;29;20277;-92
2021/12/29 23:33:31;;;;;;;37.70;7.38;;;13.30;91.70;;;;;;4936681;29;20189;-91
2021/12/29 23:35:58;;;;;;;27.67;6.47;;;13.40;91.60;;;;;;4936721;29;20244;-92
2021/12/29 23:38:25;;;;;;;30.55;9.27;;;13.40;91.30;;;;;;4937057;29;20192;-92
2021/12/29 23:40:52;;;;;;;39.75;7.75;;;13.40;91.20;;;;;;4937188;29;20185;-91
2021/12/29 23:43:19;;;;;;;35.50;6.38;;;13.50;91.30;;;;;;4936794;29;20657;-92
2021/12/29 23:45:45;;;;;;;27.42;6.32;;;13.50;91.20;;;;;;4935854;29;20217;-92
2021/12/29 23:48:11;;;;;;;29.83;7.20;;;13.50;91.20;;;;;;4936826;29;20558;-92
2021/12/29 23:50:41;;;;;;;36.23;6.97;;;13.60;91.20;;;;;;4937761;29;21067;-92
2021/12/29 23:53:13;;;;;;;28.15;6.70;;;13.60;90.90;;;;;;4929071;29;20501;-92
2021/12/29 23:55:39;;;;;;;25.52;6.50;;;13.70;90.70;;;;;;4917963;29;20214;-92
2021/12/29 23:58:09;;;;;;;19.95;6.78;;;13.80;90.40;;;;;;4918163;29;20182;-92
